sensor_id;sensor_type;location;lat;lon;timestamp;P1;durP1;ratioP1;P2;durP2;ratioP2
12832;SDS011;6483;51.310;4.462;2022-08-03T00:00:51;6.00;;;2.78;;
12832;SDS011;6483;51.310;4.462;2022-08-03T00:03:17;5.85;;;3.40;;
12832;SDS011;6483;51.310;4.462;2022-08-03T00:05:43;4.63;;;2.67;;
12832;SDS011;6483;51.310;4.462;2022-08-03T00:08:12;9.02;;;3.03;;
12832;SDS011;6483;51.310;4.462;2022-08-03T00:10:38;9.73;;;2.83;;
12832;SDS011;6483;51.310;4.462;2022-08-03T00:13:04;4.15;;;3.10;;
12832;SDS011;6483;51.310;4.462;2022-08-03T00:15:32;4.40;;;2.75;;
12832;SDS011;6483;51.310;4.462;2022-08-03T00:17:58;4.88;;;3.15;;
12832;SDS011;6483;51.310;4.462;2022-08-03T00:20:24;5.97;;;2.83;;
12832;SDS011;6483;51.310;4.462;2022-08-03T00:22:53;4.45;;;3.00;;
12832;SDS011;6483;51.310;4.462;2022-08-03T00:25:19;3.40;;;2.50;;
12832;SDS011;6483;51.310;4.462;2022-08-03T00:27:45;6.28;;;3.10;;
12832;SDS011;6483;51.310;4.462;2022-08-03T00:30:11;3.83;;;2.83;;
12832;SDS011;6483;51.310;4.462;2022-08-03T00:32:37;8.15;;;3.00;;
12832;SDS011;6483;51.310;4.462;2022-08-03T00:35:06;4.53;;;2.83;;
12832;SDS011;6483;51.310;4.462;2022-08-03T00:37:33;5.50;;;3.08;;
12832;SDS011;6483;51.310;4.462;2022-08-03T00:39:59;6.55;;;2.90;;
12832;SDS011;6483;51.310;4.462;2022-08-03T00:42:25;6.32;;;2.92;;
12832;SDS011;6483;51.310;4.462;2022-08-03T00:44:51;4.43;;;2.83;;
12832;SDS011;6483;51.310;4.462;2022-08-03T00:47:17;5.22;;;3.38;;
12832;SDS011;6483;51.310;4.462;2022-08-03T00:49:42;4.70;;;3.05;;
12832;SDS011;6483;51.310;4.462;2022-08-03T00:52:08;3.45;;;2.70;;
12832;SDS011;6483;51.310;4.462;2022-08-03T00:54:36;6.22;;;3.17;;
12832;SDS011;6483;51.310;4.462;2022-08-03T00:57:03;6.00;;;2.80;;
12832;SDS011;6483;51.310;4.462;2022-08-03T00:59:29;3.38;;;2.55;;
12832;SDS011;6483;51.310;4.462;2022-08-03T01:02:13;7.57;;;2.65;;
12832;SDS011;6483;51.310;4.462;2022-08-03T01:04:38;6.85;;;2.65;;
12832;SDS011;6483;51.310;4.462;2022-08-03T01:07:14;5.78;;;2.75;;
12832;SDS011;6483;51.310;4.462;2022-08-03T01:21:06;8.07;;;2.90;;
12832;SDS011;6483;51.310;4.462;2022-08-03T01:23:48;4.88;;;3.00;;
12832;SDS011;6483;51.310;4.462;2022-08-03T01:26:58;4.43;;;2.40;;
12832;SDS011;6483;51.310;4.462;2022-08-03T01:29:51;7.57;;;2.83;;
12832;SDS011;6483;51.310;4.462;2022-08-03T01:32:33;5.40;;;2.88;;
12832;SDS011;6483;51.310;4.462;2022-08-03T01:35:21;3.80;;;2.53;;
12832;SDS011;6483;51.310;4.462;2022-08-03T01:37:54;4.65;;;2.75;;
12832;SDS011;6483;51.310;4.462;2022-08-03T01:40:25;4.35;;;2.47;;
12832;SDS011;6483;51.310;4.462;2022-08-03T01:42:57;5.68;;;2.72;;
12832;SDS011;6483;51.310;4.462;2022-08-03T01:45:26;9.20;;;2.92;;
12832;SDS011;6483;51.310;4.462;2022-08-03T01:47:53;3.90;;;2.50;;
12832;SDS011;6483;51.310;4.462;2022-08-03T01:50:21;6.65;;;3.55;;
12832;SDS011;6483;51.310;4.462;2022-08-03T01:52:50;4.47;;;2.63;;
12832;SDS011;6483;51.310;4.462;2022-08-03T01:55:18;7.00;;;3.03;;
12832;SDS011;6483;51.310;4.462;2022-08-03T01:57:47;6.22;;;3.38;;
12832;SDS011;6483;51.310;4.462;2022-08-03T02:00:15;5.63;;;2.70;;
12832;SDS011;6483;51.310;4.462;2022-08-03T02:02:41;5.72;;;2.70;;
12832;SDS011;6483;51.310;4.462;2022-08-03T02:05:09;4.85;;;2.67;;
12832;SDS011;6483;51.310;4.462;2022-08-03T02:07:38;4.20;;;2.80;;
12832;SDS011;6483;51.310;4.462;2022-08-03T02:10:09;6.50;;;2.60;;
12832;SDS011;6483;51.310;4.462;2022-08-03T02:12:41;6.40;;;2.67;;
12832;SDS011;6483;51.310;4.462;2022-08-03T02:15:08;9.10;;;3.10;;
12832;SDS011;6483;51.310;4.462;2022-08-03T02:17:36;5.85;;;2.70;;
12832;SDS011;6483;51.310;4.462;2022-08-03T02:20:03;6.93;;;2.72;;
12832;SDS011;6483;51.310;4.462;2022-08-03T02:22:30;3.95;;;2.78;;
12832;SDS011;6483;51.310;4.462;2022-08-03T02:25:03;6.00;;;2.30;;
12832;SDS011;6483;51.310;4.462;2022-08-03T02:27:30;5.95;;;2.47;;
12832;SDS011;6483;51.310;4.462;2022-08-03T02:30:02;5.95;;;2.53;;
12832;SDS011;6483;51.310;4.462;2022-08-03T02:32:33;7.35;;;2.60;;
12832;SDS011;6483;51.310;4.462;2022-08-03T02:35:05;5.60;;;2.50;;
12832;SDS011;6483;51.310;4.462;2022-08-03T02:37:36;5.47;;;2.58;;
12832;SDS011;6483;51.310;4.462;2022-08-03T02:40:08;5.78;;;2.67;;
12832;SDS011;6483;51.310;4.462;2022-08-03T02:42:35;4.25;;;2.42;;
12832;SDS011;6483;51.310;4.462;2022-08-03T02:45:08;6.00;;;2.65;;
12832;SDS011;6483;51.310;4.462;2022-08-03T02:47:44;5.57;;;2.60;;
12832;SDS011;6483;51.310;4.462;2022-08-03T02:50:12;3.90;;;2.40;;
12832;SDS011;6483;51.310;4.462;2022-08-03T02:52:53;4.68;;;2.38;;
12832;SDS011;6483;51.310;4.462;2022-08-03T02:55:21;7.15;;;2.45;;
12832;SDS011;6483;51.310;4.462;2022-08-03T02:57:51;5.65;;;2.58;;
12832;SDS011;6483;51.310;4.462;2022-08-03T03:00:19;4.90;;;2.28;;
12832;SDS011;6483;51.310;4.462;2022-08-03T03:02:46;2.75;;;2.25;;
12832;SDS011;6483;51.310;4.462;2022-08-03T03:05:16;4.13;;;2.50;;
12832;SDS011;6483;51.310;4.462;2022-08-03T03:07:42;4.38;;;2.53;;
12832;SDS011;6483;51.310;4.462;2022-08-03T03:10:09;9.75;;;2.63;;
12832;SDS011;6483;51.310;4.462;2022-08-03T03:12:36;5.38;;;2.65;;
12832;SDS011;6483;51.310;4.462;2022-08-03T03:15:03;7.50;;;2.70;;
12832;SDS011;6483;51.310;4.462;2022-08-03T03:17:33;7.70;;;3.08;;
12832;SDS011;6483;51.310;4.462;2022-08-03T03:20:01;4.82;;;2.40;;
12832;SDS011;6483;51.310;4.462;2022-08-03T03:22:29;6.85;;;2.50;;
12832;SDS011;6483;51.310;4.462;2022-08-03T03:24:59;6.85;;;2.83;;
12832;SDS011;6483;51.310;4.462;2022-08-03T03:27:26;7.70;;;3.08;;
12832;SDS011;6483;51.310;4.462;2022-08-03T03:29:53;7.32;;;2.55;;
12832;SDS011;6483;51.310;4.462;2022-08-03T03:32:18;8.25;;;2.85;;
12832;SDS011;6483;51.310;4.462;2022-08-03T03:34:50;5.40;;;2.35;;
12832;SDS011;6483;51.310;4.462;2022-08-03T03:37:16;6.68;;;3.05;;
12832;SDS011;6483;51.310;4.462;2022-08-03T03:39:42;6.28;;;2.47;;
12832;SDS011;6483;51.310;4.462;2022-08-03T03:42:08;6.57;;;2.47;;
12832;SDS011;6483;51.310;4.462;2022-08-03T03:44:37;5.35;;;2.35;;
12832;SDS011;6483;51.310;4.462;2022-08-03T03:47:03;6.57;;;2.58;;
12832;SDS011;6483;51.310;4.462;2022-08-03T03:49:30;9.07;;;2.67;;
12832;SDS011;6483;51.310;4.462;2022-08-03T03:51:59;5.53;;;2.45;;
12832;SDS011;6483;51.310;4.462;2022-08-03T03:54:25;8.00;;;2.65;;
12832;SDS011;6483;51.310;4.462;2022-08-03T03:56:51;6.32;;;1.77;;
12832;SDS011;6483;51.310;4.462;2022-08-03T03:59:16;7.65;;;2.55;;
12832;SDS011;6483;51.310;4.462;2022-08-03T04:01:42;9.15;;;2.40;;
12832;SDS011;6483;51.310;4.462;2022-08-03T04:04:08;3.60;;;2.28;;
12832;SDS011;6483;51.310;4.462;2022-08-03T04:06:52;9.20;;;2.40;;
12832;SDS011;6483;51.310;4.462;2022-08-03T04:09:56;7.78;;;2.67;;
12832;SDS011;6483;51.310;4.462;2022-08-03T04:12:40;15.50;;;3.15;;
12832;SDS011;6483;51.310;4.462;2022-08-03T04:15:07;6.90;;;2.38;;
12832;SDS011;6483;51.310;4.462;2022-08-03T04:17:36;5.45;;;2.53;;
12832;SDS011;6483;51.310;4.462;2022-08-03T04:20:03;7.43;;;2.92;;
12832;SDS011;6483;51.310;4.462;2022-08-03T04:22:31;9.77;;;2.47;;
12832;SDS011;6483;51.310;4.462;2022-08-03T04:25:02;5.75;;;2.50;;
12832;SDS011;6483;51.310;4.462;2022-08-03T04:27:33;9.20;;;2.33;;
12832;SDS011;6483;51.310;4.462;2022-08-03T04:30:04;4.25;;;2.10;;
12832;SDS011;6483;51.310;4.462;2022-08-03T04:32:34;5.65;;;2.15;;
12832;SDS011;6483;51.310;4.462;2022-08-03T04:35:02;10.77;;;2.80;;
12832;SDS011;6483;51.310;4.462;2022-08-03T04:37:40;5.03;;;2.17;;
12832;SDS011;6483;51.310;4.462;2022-08-03T04:40:09;5.68;;;2.00;;
12832;SDS011;6483;51.310;4.462;2022-08-03T04:42:45;6.40;;;2.35;;
12832;SDS011;6483;51.310;4.462;2022-08-03T04:45:19;8.43;;;2.40;;
12832;SDS011;6483;51.310;4.462;2022-08-03T04:47:48;4.40;;;2.38;;
12832;SDS011;6483;51.310;4.462;2022-08-03T04:50:18;8.55;;;2.20;;
12832;SDS011;6483;51.310;4.462;2022-08-03T04:52:45;6.22;;;2.00;;
12832;SDS011;6483;51.310;4.462;2022-08-03T04:55:12;6.90;;;2.42;;
12832;SDS011;6483;51.310;4.462;2022-08-03T04:57:53;6.82;;;2.40;;
12832;SDS011;6483;51.310;4.462;2022-08-03T05:00:22;4.50;;;2.25;;
12832;SDS011;6483;51.310;4.462;2022-08-03T05:02:48;10.95;;;3.58;;
12832;SDS011;6483;51.310;4.462;2022-08-03T05:05:15;9.00;;;2.45;;
12832;SDS011;6483;51.310;4.462;2022-08-03T05:07:41;8.85;;;2.85;;
12832;SDS011;6483;51.310;4.462;2022-08-03T05:10:09;7.65;;;2.28;;
12832;SDS011;6483;51.310;4.462;2022-08-03T05:12:35;7.63;;;2.03;;
12832;SDS011;6483;51.310;4.462;2022-08-03T05:15:03;6.75;;;2.45;;
12832;SDS011;6483;51.310;4.462;2022-08-03T05:17:30;11.38;;;2.50;;
12832;SDS011;6483;51.310;4.462;2022-08-03T05:19:58;11.93;;;2.28;;
12832;SDS011;6483;51.310;4.462;2022-08-03T05:22:28;10.23;;;2.55;;
12832;SDS011;6483;51.310;4.462;2022-08-03T05:24:54;12.65;;;2.78;;
12832;SDS011;6483;51.310;4.462;2022-08-03T05:27:23;7.90;;;2.38;;
12832;SDS011;6483;51.310;4.462;2022-08-03T05:29:49;12.90;;;2.88;;
12832;SDS011;6483;51.310;4.462;2022-08-03T05:32:18;7.47;;;2.60;;
12832;SDS011;6483;51.310;4.462;2022-08-03T05:34:52;8.95;;;2.15;;
12832;SDS011;6483;51.310;4.462;2022-08-03T05:37:18;7.40;;;2.00;;
12832;SDS011;6483;51.310;4.462;2022-08-03T05:39:44;7.93;;;2.55;;
12832;SDS011;6483;51.310;4.462;2022-08-03T05:42:09;9.05;;;2.30;;
12832;SDS011;6483;51.310;4.462;2022-08-03T05:44:35;8.40;;;2.15;;
12832;SDS011;6483;51.310;4.462;2022-08-03T05:47:03;6.78;;;2.30;;
12832;SDS011;6483;51.310;4.462;2022-08-03T05:49:29;10.45;;;2.80;;
12832;SDS011;6483;51.310;4.462;2022-08-03T05:51:54;9.38;;;2.20;;
12832;SDS011;6483;51.310;4.462;2022-08-03T05:54:20;10.57;;;2.90;;
12832;SDS011;6483;51.310;4.462;2022-08-03T05:56:46;8.75;;;2.13;;
12832;SDS011;6483;51.310;4.462;2022-08-03T05:59:14;9.25;;;1.98;;
12832;SDS011;6483;51.310;4.462;2022-08-03T06:01:40;8.27;;;2.47;;
12832;SDS011;6483;51.310;4.462;2022-08-03T06:04:06;8.43;;;2.22;;
12832;SDS011;6483;51.310;4.462;2022-08-03T06:06:31;6.03;;;2.25;;
12832;SDS011;6483;51.310;4.462;2022-08-03T06:09:00;7.70;;;2.15;;
12832;SDS011;6483;51.310;4.462;2022-08-03T06:11:25;7.85;;;2.60;;
12832;SDS011;6483;51.310;4.462;2022-08-03T06:13:51;11.68;;;2.40;;
12832;SDS011;6483;51.310;4.462;2022-08-03T06:16:16;8.05;;;2.50;;
12832;SDS011;6483;51.310;4.462;2022-08-03T06:18:48;6.32;;;3.22;;
12832;SDS011;6483;51.310;4.462;2022-08-03T06:21:17;12.60;;;2.92;;
12832;SDS011;6483;51.310;4.462;2022-08-03T06:23:44;6.78;;;2.15;;
12832;SDS011;6483;51.310;4.462;2022-08-03T06:26:10;9.50;;;2.42;;
12832;SDS011;6483;51.310;4.462;2022-08-03T06:28:35;12.75;;;2.70;;
12832;SDS011;6483;51.310;4.462;2022-08-03T06:31:01;5.43;;;2.30;;
12832;SDS011;6483;51.310;4.462;2022-08-03T06:33:28;7.65;;;2.33;;
12832;SDS011;6483;51.310;4.462;2022-08-03T06:35:54;13.15;;;2.63;;
12832;SDS011;6483;51.310;4.462;2022-08-03T06:38:22;15.63;;;2.60;;
12832;SDS011;6483;51.310;4.462;2022-08-03T06:40:51;13.57;;;2.45;;
12832;SDS011;6483;51.310;4.462;2022-08-03T06:43:17;10.98;;;2.30;;
12832;SDS011;6483;51.310;4.462;2022-08-03T06:45:45;10.57;;;2.53;;
12832;SDS011;6483;51.310;4.462;2022-08-03T06:48:11;11.85;;;2.63;;
12832;SDS011;6483;51.310;4.462;2022-08-03T06:50:40;16.42;;;2.90;;
12832;SDS011;6483;51.310;4.462;2022-08-03T06:53:08;10.13;;;2.67;;
12832;SDS011;6483;51.310;4.462;2022-08-03T06:55:36;11.98;;;2.95;;
12832;SDS011;6483;51.310;4.462;2022-08-03T06:58:02;7.82;;;2.75;;
12832;SDS011;6483;51.310;4.462;2022-08-03T07:00:28;8.73;;;2.47;;
12832;SDS011;6483;51.310;4.462;2022-08-03T07:02:54;9.05;;;2.60;;
12832;SDS011;6483;51.310;4.462;2022-08-03T07:05:23;9.85;;;2.33;;
12832;SDS011;6483;51.310;4.462;2022-08-03T07:07:49;10.40;;;2.35;;
12832;SDS011;6483;51.310;4.462;2022-08-03T07:10:18;8.60;;;2.20;;
12832;SDS011;6483;51.310;4.462;2022-08-03T07:12:46;11.07;;;2.95;;
12832;SDS011;6483;51.310;4.462;2022-08-03T07:15:12;8.43;;;2.45;;
12832;SDS011;6483;51.310;4.462;2022-08-03T07:17:42;11.35;;;2.42;;
12832;SDS011;6483;51.310;4.462;2022-08-03T07:20:10;6.07;;;1.95;;
12832;SDS011;6483;51.310;4.462;2022-08-03T07:22:37;10.95;;;2.80;;
12832;SDS011;6483;51.310;4.462;2022-08-03T07:25:06;7.75;;;2.05;;
12832;SDS011;6483;51.310;4.462;2022-08-03T07:27:32;13.40;;;2.75;;
12832;SDS011;6483;51.310;4.462;2022-08-03T07:29:59;8.10;;;2.40;;
12832;SDS011;6483;51.310;4.462;2022-08-03T07:32:25;8.55;;;2.45;;
12832;SDS011;6483;51.310;4.462;2022-08-03T07:34:55;9.10;;;2.78;;
12832;SDS011;6483;51.310;4.462;2022-08-03T07:37:24;6.43;;;1.80;;
12832;SDS011;6483;51.310;4.462;2022-08-03T07:39:50;7.30;;;2.00;;
12832;SDS011;6483;51.310;4.462;2022-08-03T07:42:16;8.43;;;2.00;;
12832;SDS011;6483;51.310;4.462;2022-08-03T07:44:44;8.23;;;1.92;;
12832;SDS011;6483;51.310;4.462;2022-08-03T07:47:10;10.57;;;1.90;;
12832;SDS011;6483;51.310;4.462;2022-08-03T07:49:42;12.68;;;2.33;;
12832;SDS011;6483;51.310;4.462;2022-08-03T07:52:10;7.30;;;2.05;;
12832;SDS011;6483;51.310;4.462;2022-08-03T07:54:55;9.18;;;2.03;;
12832;SDS011;6483;51.310;4.462;2022-08-03T07:57:20;11.07;;;2.10;;
12832;SDS011;6483;51.310;4.462;2022-08-03T07:59:49;9.43;;;1.95;;
12832;SDS011;6483;51.310;4.462;2022-08-03T08:02:15;11.77;;;2.13;;
12832;SDS011;6483;51.310;4.462;2022-08-03T08:04:46;8.93;;;2.10;;
12832;SDS011;6483;51.310;4.462;2022-08-03T08:07:12;10.80;;;2.17;;
12832;SDS011;6483;51.310;4.462;2022-08-03T08:09:38;12.73;;;1.52;;
12832;SDS011;6483;51.310;4.462;2022-08-03T08:12:06;7.35;;;1.88;;
12832;SDS011;6483;51.310;4.462;2022-08-03T08:14:33;9.77;;;2.38;;
12832;SDS011;6483;51.310;4.462;2022-08-03T08:17:02;7.50;;;1.83;;
12832;SDS011;6483;51.310;4.462;2022-08-03T08:19:28;4.75;;;1.42;;
12832;SDS011;6483;51.310;4.462;2022-08-03T08:21:53;6.38;;;1.75;;
12832;SDS011;6483;51.310;4.462;2022-08-03T08:24:19;11.70;;;2.17;;
12832;SDS011;6483;51.310;4.462;2022-08-03T08:27:03;8.15;;;2.13;;
12832;SDS011;6483;51.310;4.462;2022-08-03T08:29:29;9.55;;;2.25;;
12832;SDS011;6483;51.310;4.462;2022-08-03T08:32:04;6.63;;;1.75;;
12832;SDS011;6483;51.310;4.462;2022-08-03T08:34:30;11.32;;;1.85;;
12832;SDS011;6483;51.310;4.462;2022-08-03T08:36:56;9.60;;;1.83;;
12832;SDS011;6483;51.310;4.462;2022-08-03T08:39:22;8.63;;;1.90;;
12832;SDS011;6483;51.310;4.462;2022-08-03T08:41:51;11.95;;;2.22;;
12832;SDS011;6483;51.310;4.462;2022-08-03T08:44:19;5.07;;;2.17;;
12832;SDS011;6483;51.310;4.462;2022-08-03T08:46:48;6.65;;;1.80;;
12832;SDS011;6483;51.310;4.462;2022-08-03T08:49:16;6.22;;;2.00;;
12832;SDS011;6483;51.310;4.462;2022-08-03T08:51:44;11.00;;;2.00;;
12832;SDS011;6483;51.310;4.462;2022-08-03T08:54:12;12.15;;;2.10;;
12832;SDS011;6483;51.310;4.462;2022-08-03T08:56:49;13.90;;;2.75;;
12832;SDS011;6483;51.310;4.462;2022-08-03T08:59:16;6.22;;;2.00;;
12832;SDS011;6483;51.310;4.462;2022-08-03T09:01:42;10.55;;;2.60;;
12832;SDS011;6483;51.310;4.462;2022-08-03T09:04:08;11.45;;;2.40;;
12832;SDS011;6483;51.310;4.462;2022-08-03T09:06:34;12.70;;;2.50;;
12832;SDS011;6483;51.310;4.462;2022-08-03T09:09:00;12.38;;;2.33;;
12832;SDS011;6483;51.310;4.462;2022-08-03T09:11:29;9.35;;;2.05;;
12832;SDS011;6483;51.310;4.462;2022-08-03T09:13:55;11.18;;;2.30;;
12832;SDS011;6483;51.310;4.462;2022-08-03T09:16:22;8.77;;;2.03;;
12832;SDS011;6483;51.310;4.462;2022-08-03T09:18:52;8.13;;;2.17;;
12832;SDS011;6483;51.310;4.462;2022-08-03T09:21:20;12.10;;;2.75;;
12832;SDS011;6483;51.310;4.462;2022-08-03T09:23:50;10.73;;;2.15;;
12832;SDS011;6483;51.310;4.462;2022-08-03T09:26:23;10.18;;;2.20;;
12832;SDS011;6483;51.310;4.462;2022-08-03T09:29:00;12.25;;;2.47;;
12832;SDS011;6483;51.310;4.462;2022-08-03T09:31:41;5.88;;;2.10;;
12832;SDS011;6483;51.310;4.462;2022-08-03T09:34:11;9.98;;;2.10;;
12832;SDS011;6483;51.310;4.462;2022-08-03T09:36:45;15.25;;;2.92;;
12832;SDS011;6483;51.310;4.462;2022-08-03T09:39:18;6.22;;;1.58;;
12832;SDS011;6483;51.310;4.462;2022-08-03T09:42:05;9.20;;;1.48;;
12832;SDS011;6483;51.310;4.462;2022-08-03T09:44:33;9.40;;;2.22;;
12832;SDS011;6483;51.310;4.462;2022-08-03T09:47:11;11.23;;;2.67;;
12832;SDS011;6483;51.310;4.462;2022-08-03T09:49:40;7.75;;;2.50;;
12832;SDS011;6483;51.310;4.462;2022-08-03T09:52:16;10.57;;;2.60;;
12832;SDS011;6483;51.310;4.462;2022-08-03T09:54:43;8.00;;;1.88;;
12832;SDS011;6483;51.310;4.462;2022-08-03T09:57:19;8.63;;;2.10;;
12832;SDS011;6483;51.310;4.462;2022-08-03T09:59:45;9.48;;;2.42;;
12832;SDS011;6483;51.310;4.462;2022-08-03T10:02:45;8.23;;;1.80;;
12832;SDS011;6483;51.310;4.462;2022-08-03T10:05:09;7.13;;;1.60;;
12832;SDS011;6483;51.310;4.462;2022-08-03T10:07:44;10.45;;;2.45;;
12832;SDS011;6483;51.310;4.462;2022-08-03T10:10:11;13.48;;;1.90;;
12832;SDS011;6483;51.310;4.462;2022-08-03T10:12:41;10.00;;;2.28;;
12832;SDS011;6483;51.310;4.462;2022-08-03T10:15:08;11.23;;;2.20;;
12832;SDS011;6483;51.310;4.462;2022-08-03T10:17:35;10.13;;;2.30;;
12832;SDS011;6483;51.310;4.462;2022-08-03T10:20:01;6.07;;;1.63;;
12832;SDS011;6483;51.310;4.462;2022-08-03T10:22:33;9.60;;;1.65;;
12832;SDS011;6483;51.310;4.462;2022-08-03T10:27:26;9.52;;;1.63;;
12832;SDS011;6483;51.310;4.462;2022-08-03T10:29:53;10.95;;;2.17;;
12832;SDS011;6483;51.310;4.462;2022-08-03T10:32:39;4.88;;;1.58;;
12832;SDS011;6483;51.310;4.462;2022-08-03T10:35:07;7.70;;;2.00;;
12832;SDS011;6483;51.310;4.462;2022-08-03T10:37:36;6.93;;;1.88;;
12832;SDS011;6483;51.310;4.462;2022-08-03T10:40:05;8.75;;;1.88;;
12832;SDS011;6483;51.310;4.462;2022-08-03T10:42:35;8.15;;;2.28;;
12832;SDS011;6483;51.310;4.462;2022-08-03T10:45:05;6.70;;;1.50;;
12832;SDS011;6483;51.310;4.462;2022-08-03T10:47:32;7.10;;;1.77;;
12832;SDS011;6483;51.310;4.462;2022-08-03T10:49:59;5.18;;;1.77;;
12832;SDS011;6483;51.310;4.462;2022-08-03T10:52:26;5.78;;;1.77;;
12832;SDS011;6483;51.310;4.462;2022-08-03T10:54:56;5.75;;;1.77;;
12832;SDS011;6483;51.310;4.462;2022-08-03T10:57:43;10.95;;;1.75;;
12832;SDS011;6483;51.310;4.462;2022-08-03T11:00:22;8.68;;;2.15;;
12832;SDS011;6483;51.310;4.462;2022-08-03T11:05:46;4.55;;;1.58;;
12832;SDS011;6483;51.310;4.462;2022-08-03T11:10:58;3.28;;;1.25;;
12832;SDS011;6483;51.310;4.462;2022-08-03T11:14:03;9.75;;;1.50;;
12832;SDS011;6483;51.310;4.462;2022-08-03T11:17:04;4.90;;;1.70;;
12832;SDS011;6483;51.310;4.462;2022-08-03T11:19:44;6.40;;;1.40;;
12832;SDS011;6483;51.310;4.462;2022-08-03T11:22:12;9.15;;;1.65;;
12832;SDS011;6483;51.310;4.462;2022-08-03T11:35:21;4.95;;;1.48;;
12832;SDS011;6483;51.310;4.462;2022-08-03T11:46:12;5.10;;;1.30;;
12832;SDS011;6483;51.310;4.462;2022-08-03T11:48:43;7.72;;;1.60;;
12832;SDS011;6483;51.310;4.462;2022-08-03T11:53:58;9.95;;;1.70;;
12832;SDS011;6483;51.310;4.462;2022-08-03T11:56:27;5.63;;;1.20;;
12832;SDS011;6483;51.310;4.462;2022-08-03T11:58:54;4.75;;;1.17;;
12832;SDS011;6483;51.310;4.462;2022-08-03T12:01:21;7.40;;;1.42;;
12832;SDS011;6483;51.310;4.462;2022-08-03T12:03:50;3.15;;;1.27;;
12832;SDS011;6483;51.310;4.462;2022-08-03T12:06:16;7.93;;;1.50;;
12832;SDS011;6483;51.310;4.462;2022-08-03T12:08:47;4.90;;;1.08;;
12832;SDS011;6483;51.310;4.462;2022-08-03T12:11:16;4.55;;;1.48;;
12832;SDS011;6483;51.310;4.462;2022-08-03T12:13:46;7.65;;;1.27;;
12832;SDS011;6483;51.310;4.462;2022-08-03T12:16:17;5.85;;;1.60;;
12832;SDS011;6483;51.310;4.462;2022-08-03T12:18:59;4.00;;;1.15;;
12832;SDS011;6483;51.310;4.462;2022-08-03T12:21:26;4.90;;;1.20;;
12832;SDS011;6483;51.310;4.462;2022-08-03T12:23:56;5.10;;;1.25;;
12832;SDS011;6483;51.310;4.462;2022-08-03T12:26:24;8.65;;;1.10;;
12832;SDS011;6483;51.310;4.462;2022-08-03T12:28:53;4.25;;;1.45;;
12832;SDS011;6483;51.310;4.462;2022-08-03T12:31:22;3.58;;;1.00;;
12832;SDS011;6483;51.310;4.462;2022-08-03T12:34:02;2.90;;;1.10;;
12832;SDS011;6483;51.310;4.462;2022-08-03T12:36:33;2.75;;;1.20;;
12832;SDS011;6483;51.310;4.462;2022-08-03T12:39:00;3.60;;;0.85;;
12832;SDS011;6483;51.310;4.462;2022-08-03T12:41:31;3.50;;;1.08;;
12832;SDS011;6483;51.310;4.462;2022-08-03T12:44:05;2.95;;;1.20;;
12832;SDS011;6483;51.310;4.462;2022-08-03T12:46:32;5.82;;;1.42;;
12832;SDS011;6483;51.310;4.462;2022-08-03T12:49:16;11.85;;;1.70;;
12832;SDS011;6483;51.310;4.462;2022-08-03T12:54:21;7.00;;;1.42;;
12832;SDS011;6483;51.310;4.462;2022-08-03T12:57:03;2.92;;;1.45;;
12832;SDS011;6483;51.310;4.462;2022-08-03T12:59:31;7.57;;;1.27;;
12832;SDS011;6483;51.310;4.462;2022-08-03T13:02:01;6.72;;;1.30;;
12832;SDS011;6483;51.310;4.462;2022-08-03T13:04:31;6.95;;;1.13;;
12832;SDS011;6483;51.310;4.462;2022-08-03T13:09:24;6.20;;;1.45;;
12832;SDS011;6483;51.310;4.462;2022-08-03T13:12:07;7.57;;;1.35;;
12832;SDS011;6483;51.310;4.462;2022-08-03T13:14:33;7.50;;;1.25;;
12832;SDS011;6483;51.310;4.462;2022-08-03T13:17:03;2.13;;;0.93;;
12832;SDS011;6483;51.310;4.462;2022-08-03T13:19:30;3.20;;;0.93;;
12832;SDS011;6483;51.310;4.462;2022-08-03T13:21:56;4.10;;;1.05;;
12832;SDS011;6483;51.310;4.462;2022-08-03T13:24:26;4.57;;;0.98;;
12832;SDS011;6483;51.310;4.462;2022-08-03T13:26:52;1.15;;;0.90;;
12832;SDS011;6483;51.310;4.462;2022-08-03T13:29:18;3.45;;;1.13;;
12832;SDS011;6483;51.310;4.462;2022-08-03T13:32:03;4.47;;;1.17;;
12832;SDS011;6483;51.310;4.462;2022-08-03T13:34:30;5.55;;;1.17;;
12832;SDS011;6483;51.310;4.462;2022-08-03T13:36:57;4.50;;;1.27;;
12832;SDS011;6483;51.310;4.462;2022-08-03T13:39:23;4.22;;;1.10;;
12832;SDS011;6483;51.310;4.462;2022-08-03T13:41:55;2.38;;;1.45;;
12832;SDS011;6483;51.310;4.462;2022-08-03T13:44:21;2.65;;;0.80;;
12832;SDS011;6483;51.310;4.462;2022-08-03T13:46:50;3.25;;;0.88;;
12832;SDS011;6483;51.310;4.462;2022-08-03T13:49:16;5.13;;;1.30;;
12832;SDS011;6483;51.310;4.462;2022-08-03T13:51:46;3.33;;;1.00;;
12832;SDS011;6483;51.310;4.462;2022-08-03T13:54:15;5.40;;;0.90;;
12832;SDS011;6483;51.310;4.462;2022-08-03T13:56:41;5.68;;;1.55;;
12832;SDS011;6483;51.310;4.462;2022-08-03T13:59:13;3.60;;;1.48;;
12832;SDS011;6483;51.310;4.462;2022-08-03T14:01:42;1.65;;;1.00;;
12832;SDS011;6483;51.310;4.462;2022-08-03T14:04:08;3.58;;;0.93;;
12832;SDS011;6483;51.310;4.462;2022-08-03T14:06:40;5.13;;;1.00;;
12832;SDS011;6483;51.310;4.462;2022-08-03T14:09:09;2.00;;;0.60;;
12832;SDS011;6483;51.310;4.462;2022-08-03T14:11:35;4.93;;;1.27;;
12832;SDS011;6483;51.310;4.462;2022-08-03T14:14:01;1.60;;;1.17;;
12832;SDS011;6483;51.310;4.462;2022-08-03T14:16:27;3.42;;;0.95;;
12832;SDS011;6483;51.310;4.462;2022-08-03T14:18:53;5.70;;;1.25;;
12832;SDS011;6483;51.310;4.462;2022-08-03T14:21:19;3.72;;;0.95;;
12832;SDS011;6483;51.310;4.462;2022-08-03T14:23:45;4.50;;;0.88;;
12832;SDS011;6483;51.310;4.462;2022-08-03T14:26:14;5.40;;;1.05;;
12832;SDS011;6483;51.310;4.462;2022-08-03T14:28:42;2.33;;;1.00;;
12832;SDS011;6483;51.310;4.462;2022-08-03T14:31:08;3.05;;;1.08;;
12832;SDS011;6483;51.310;4.462;2022-08-03T14:33:37;7.55;;;1.00;;
12832;SDS011;6483;51.310;4.462;2022-08-03T14:36:03;2.42;;;0.77;;
12832;SDS011;6483;51.310;4.462;2022-08-03T14:38:29;1.40;;;0.82;;
12832;SDS011;6483;51.310;4.462;2022-08-03T14:40:55;5.07;;;1.15;;
12832;SDS011;6483;51.310;4.462;2022-08-03T14:43:21;2.67;;;1.08;;
12832;SDS011;6483;51.310;4.462;2022-08-03T14:45:51;1.70;;;0.80;;
12832;SDS011;6483;51.310;4.462;2022-08-03T14:48:20;6.10;;;1.00;;
12832;SDS011;6483;51.310;4.462;2022-08-03T14:50:46;3.17;;;1.15;;
12832;SDS011;6483;51.310;4.462;2022-08-03T14:53:16;1.67;;;0.80;;
12832;SDS011;6483;51.310;4.462;2022-08-03T14:55:42;3.78;;;0.90;;
12832;SDS011;6483;51.310;4.462;2022-08-03T14:58:13;1.92;;;0.80;;
12832;SDS011;6483;51.310;4.462;2022-08-03T15:00:39;3.20;;;1.15;;
12832;SDS011;6483;51.310;4.462;2022-08-03T15:03:05;1.10;;;0.90;;
12832;SDS011;6483;51.310;4.462;2022-08-03T15:05:34;2.25;;;0.70;;
12832;SDS011;6483;51.310;4.462;2022-08-03T15:08:00;1.60;;;1.00;;
12832;SDS011;6483;51.310;4.462;2022-08-03T15:10:26;1.35;;;0.73;;
12832;SDS011;6483;51.310;4.462;2022-08-03T15:12:52;1.92;;;0.88;;
12832;SDS011;6483;51.310;4.462;2022-08-03T15:15:24;2.35;;;0.70;;
12832;SDS011;6483;51.310;4.462;2022-08-03T15:17:50;4.50;;;1.00;;
12832;SDS011;6483;51.310;4.462;2022-08-03T15:20:19;4.60;;;0.80;;
12832;SDS011;6483;51.310;4.462;2022-08-03T15:22:45;3.45;;;0.90;;
12832;SDS011;6483;51.310;4.462;2022-08-03T15:25:20;2.30;;;0.77;;
12832;SDS011;6483;51.310;4.462;2022-08-03T15:27:46;2.47;;;0.90;;
12832;SDS011;6483;51.310;4.462;2022-08-03T15:30:12;2.45;;;0.77;;
12832;SDS011;6483;51.310;4.462;2022-08-03T15:32:38;2.97;;;0.93;;
12832;SDS011;6483;51.310;4.462;2022-08-03T15:35:07;3.00;;;1.00;;
12832;SDS011;6483;51.310;4.462;2022-08-03T15:37:36;2.90;;;0.80;;
12832;SDS011;6483;51.310;4.462;2022-08-03T15:40:02;3.90;;;0.95;;
12832;SDS011;6483;51.310;4.462;2022-08-03T15:42:32;4.05;;;1.00;;
12832;SDS011;6483;51.310;4.462;2022-08-03T15:44:58;5.03;;;0.85;;
12832;SDS011;6483;51.310;4.462;2022-08-03T15:47:28;5.78;;;0.80;;
12832;SDS011;6483;51.310;4.462;2022-08-03T15:49:54;1.83;;;0.80;;
12832;SDS011;6483;51.310;4.462;2022-08-03T15:52:20;1.90;;;0.75;;
12832;SDS011;6483;51.310;4.462;2022-08-03T15:54:46;3.33;;;1.15;;
12832;SDS011;6483;51.310;4.462;2022-08-03T15:57:12;5.03;;;1.05;;
12832;SDS011;6483;51.310;4.462;2022-08-03T15:59:38;4.32;;;0.93;;